createdAt,value
2023-04-27T00:04:02.046Z,57.30
2023-04-27T00:09:04.931Z,59.07
2023-04-27T00:14:07.712Z,59.85
2023-04-27T00:19:10.537Z,67.53
2023-04-27T00:24:13.364Z,62.35
2023-04-27T00:29:16.359Z,53.47
2023-04-27T00:34:21.016Z,55.47
2023-04-27T00:39:23.725Z,58.09
2023-04-27T00:44:27.552Z,59.26
2023-04-27T00:49:30.920Z,61.16
2023-04-27T00:54:33.959Z,61.53
2023-04-27T00:59:36.918Z,68.89
2023-04-27T01:04:40.052Z,59.60
2023-04-27T01:09:42.843Z,54.56
2023-04-27T01:14:45.825Z,57.51
2023-04-27T01:19:50.068Z,58.80
2023-04-27T01:24:54.396Z,60.51
2023-04-27T01:29:57.128Z,66.31
2023-04-27T01:34:59.853Z,65.39
2023-04-27T01:40:06.488Z,56.29
2023-04-27T01:45:10.595Z,55.28
2023-04-27T01:50:13.395Z,57.18
2023-04-27T01:55:16.196Z,59.92
2023-04-27T02:00:19.279Z,60.21
2023-04-27T02:05:22.022Z,67.66
2023-04-27T02:10:24.810Z,62.94
2023-04-27T02:15:27.649Z,54.68
2023-04-27T02:20:31.511Z,57.40
2023-04-27T02:25:39.087Z,59.37
2023-04-27T02:30:41.888Z,61.04
2023-04-27T02:35:44.624Z,68.47
2023-04-27T02:40:47.641Z,63.39
2023-04-27T02:45:50.826Z,54.85
2023-04-27T02:50:53.570Z,56.62
2023-04-27T02:55:56.431Z,59.15
2023-04-27T03:00:59.196Z,60.81
2023-04-27T03:06:02.048Z,68.06
2023-04-27T03:11:04.961Z,63.14
2023-04-27T03:16:11.532Z,55.29
2023-04-27T03:21:16.936Z,57.51
2023-04-27T03:26:20.463Z,60.18
2023-04-27T03:31:23.302Z,60.75
2023-04-27T03:36:27.186Z,60.92
2023-04-27T03:41:29.942Z,70.86
2023-04-27T03:46:33.076Z,65.34
2023-04-27T03:51:35.997Z,56.07
2023-04-27T03:56:38.845Z,56.90
2023-04-27T04:01:41.590Z,59.13
2023-04-27T04:06:44.351Z,60.38
2023-04-27T04:11:47.156Z,67.26
2023-04-27T04:16:49.906Z,63.12
2023-04-27T04:21:54.844Z,54.99
2023-04-27T04:26:58.774Z,56.94
2023-04-27T04:32:01.560Z,59.10
2023-04-27T04:37:05.550Z,60.92
2023-04-27T04:42:08.893Z,66.74
2023-04-27T04:47:12.064Z,59.97
2023-04-27T04:52:14.866Z,54.67
2023-04-27T04:57:17.682Z,57.71
2023-04-27T05:02:21.113Z,59.36
2023-04-27T05:07:25.071Z,60.22
2023-04-27T05:12:27.953Z,60.99
2023-04-27T05:17:31.287Z,64.72
2023-04-27T05:22:34.035Z,56.53
2023-04-27T05:27:36.817Z,54.11
2023-04-27T05:32:39.740Z,55.56
2023-04-27T05:37:43.156Z,57.24
2023-04-27T05:42:50.240Z,59.54
2023-04-27T05:47:53.244Z,60.03
2023-04-27T05:52:56.421Z,60.97
2023-04-27T05:58:07.511Z,62.84
2023-04-27T06:03:12.205Z,53.72
2023-04-27T06:08:16.917Z,54.98
2023-04-27T06:13:20.780Z,57.40
2023-04-27T06:19:05.193Z,53.13
2023-04-27T06:24:17.481Z,45.20
2023-04-27T06:29:22.219Z,38.55
2023-04-27T06:34:34.679Z,35.93
2023-04-27T06:39:46.872Z,33.46
2023-04-27T06:44:55.965Z,30.76
2023-04-27T06:50:01.791Z,27.54
2023-04-27T06:55:07.078Z,27.74
2023-04-27T07:00:11.722Z,28.68
2023-04-27T07:05:14.669Z,28.49
2023-04-27T07:10:17.749Z,30.73
2023-04-27T07:15:21.658Z,34.40
2023-04-27T07:20:24.460Z,37.08
2023-04-27T07:25:27.794Z,37.94
2023-04-27T07:30:31.258Z,38.00
2023-04-27T07:35:34.225Z,36.21
2023-04-27T07:40:37.042Z,35.38
2023-04-27T07:45:41.650Z,37.37
2023-04-27T07:50:45.052Z,38.99
2023-04-27T07:55:47.833Z,41.11
2023-04-27T08:00:50.585Z,42.72
2023-04-27T08:05:53.622Z,43.94
2023-04-27T08:10:56.783Z,44.64
2023-04-27T08:15:59.666Z,45.14
2023-04-27T08:21:02.662Z,44.97
2023-04-27T08:26:05.426Z,45.29
2023-04-27T08:31:08.276Z,45.07
2023-04-27T08:36:11.217Z,45.24
2023-04-27T08:41:22.785Z,46.80
2023-04-27T08:46:31.590Z,47.46
2023-04-27T08:51:34.734Z,48.15
2023-04-27T08:56:37.621Z,47.76
2023-04-27T09:01:51.800Z,43.68
2023-04-27T09:06:55.324Z,41.91
2023-04-27T09:11:58.290Z,40.75
2023-04-27T09:17:01.336Z,40.59
2023-04-27T09:22:09.461Z,42.59
2023-04-27T09:27:20.628Z,44.63
2023-04-27T09:32:23.481Z,46.09
2023-04-27T09:37:27.179Z,46.43
2023-04-27T09:42:30.196Z,45.43
2023-04-27T09:47:34.536Z,44.05
2023-04-27T09:52:37.351Z,43.67
2023-04-27T09:58:19.549Z,44.05
2023-04-27T10:03:48.288Z,43.58
2023-04-27T10:08:54.091Z,45.32
2023-04-27T10:13:56.904Z,44.43
2023-04-27T10:19:00.428Z,44.27
2023-04-27T10:24:08.914Z,43.21
2023-04-27T10:29:12.639Z,44.14
2023-04-27T10:34:21.306Z,44.69
2023-04-27T10:39:47.078Z,45.41
2023-04-27T10:45:04.275Z,45.53
2023-04-27T10:50:17.358Z,44.68
2023-04-27T10:55:23.385Z,44.33
2023-04-27T11:00:32.587Z,43.55
2023-04-27T11:05:36.217Z,44.04
2023-04-27T11:10:41.455Z,44.95
2023-04-27T11:16:05.264Z,45.37
2023-04-27T11:21:11.620Z,45.86
2023-04-27T11:26:17.734Z,44.66
2023-04-27T11:31:21.113Z,43.85
2023-04-27T11:36:24.505Z,44.37
2023-04-27T11:41:37.492Z,43.89
2023-04-27T11:46:45.113Z,43.07
2023-04-27T11:51:48.877Z,40.99
2023-04-27T11:56:51.651Z,40.82
2023-04-27T12:01:54.798Z,39.19
2023-04-27T12:06:58.111Z,40.13
2023-04-27T12:12:01.071Z,41.45
2023-04-27T12:17:03.999Z,41.58
2023-04-27T12:22:07.208Z,41.30
2023-04-27T12:27:10.014Z,41.28
2023-04-27T12:32:12.853Z,41.07
2023-04-27T12:37:26.672Z,40.57
2023-04-27T12:42:30.256Z,42.12
2023-04-27T12:47:53.958Z,42.72
2023-04-27T12:52:58.175Z,41.46
2023-04-27T12:58:01.506Z,41.36
2023-04-27T13:03:05.243Z,41.13
2023-04-27T13:08:08.098Z,40.64
2023-04-27T13:13:11.037Z,41.92
2023-04-27T13:18:13.945Z,43.30
2023-04-27T13:23:18.058Z,44.12
2023-04-27T13:28:20.955Z,44.79
2023-04-27T13:33:25.377Z,45.63
2023-04-27T13:38:29.177Z,46.38
2023-04-27T13:43:33.028Z,46.98
2023-04-27T13:48:37.865Z,47.02
2023-04-27T13:53:40.760Z,46.42
2023-04-27T13:58:43.828Z,46.44
2023-04-27T14:03:47.423Z,46.71
2023-04-27T14:08:52.325Z,47.18
2023-04-27T14:13:56.193Z,47.74
2023-04-27T14:18:59.477Z,48.17
2023-04-27T14:24:02.323Z,49.17
2023-04-27T14:29:07.693Z,49.89
2023-04-27T14:34:11.012Z,51.44
2023-04-27T14:39:16.356Z,53.39
2023-04-27T14:44:22.194Z,52.39
2023-04-27T14:49:25.412Z,54.53
2023-04-27T14:54:29.765Z,57.26
2023-04-27T14:59:34.854Z,54.49
2023-04-27T15:04:39.310Z,53.81
2023-04-27T15:09:42.509Z,53.79
2023-04-27T15:14:45.452Z,55.33
2023-04-27T15:19:48.264Z,55.42
2023-04-27T15:24:51.286Z,55.02
2023-04-27T15:29:55.086Z,54.39
2023-04-27T15:34:58.424Z,52.88
2023-04-27T15:40:03.892Z,53.12
2023-04-27T15:45:09.842Z,52.56
2023-04-27T15:50:13.485Z,52.32
2023-04-27T15:55:18.988Z,52.37
2023-04-27T16:00:22.893Z,52.99
2023-04-27T16:05:31.337Z,52.87
2023-04-27T16:10:34.280Z,53.10
2023-04-27T16:15:38.017Z,52.36
2023-04-27T16:20:42.229Z,52.50
2023-04-27T16:25:46.908Z,52.92
2023-04-27T16:30:49.667Z,52.89
2023-04-27T16:35:52.567Z,53.21
2023-04-27T16:40:56.358Z,53.37
2023-04-27T16:46:01.284Z,53.07
2023-04-27T16:51:04.557Z,52.11
2023-04-27T16:56:07.530Z,51.82
2023-04-27T17:01:10.576Z,51.34
2023-04-27T17:06:14.527Z,51.37
2023-04-27T17:11:17.434Z,51.41
2023-04-27T17:16:21.940Z,51.61
2023-04-27T17:21:26.913Z,51.80
2023-04-27T17:26:35.182Z,51.93
2023-04-27T17:31:38.012Z,52.28
2023-04-27T17:36:40.840Z,52.81
2023-04-27T17:41:43.641Z,52.54
2023-04-27T17:46:47.787Z,52.68
2023-04-27T17:51:50.980Z,52.98
2023-04-27T17:56:54.051Z,53.40
2023-04-27T18:01:56.865Z,53.92
2023-04-27T18:06:59.681Z,54.20
2023-04-27T18:12:02.462Z,54.81
2023-04-27T18:17:05.973Z,54.59
2023-04-27T18:22:10.189Z,54.11
2023-04-27T18:27:16.577Z,54.14
2023-04-27T18:32:19.685Z,53.81
2023-04-27T18:37:22.551Z,54.03
2023-04-27T18:42:26.045Z,54.13
2023-04-27T18:47:29.101Z,54.44
2023-04-27T18:52:32.086Z,54.75
2023-04-27T18:57:34.802Z,54.91
2023-04-27T19:02:38.197Z,55.15
2023-04-27T19:07:41.701Z,55.30
2023-04-27T19:12:44.434Z,55.73
2023-04-27T19:17:48.770Z,55.95
2023-04-27T19:22:55.331Z,56.10
2023-04-27T19:27:58.808Z,56.51
2023-04-27T19:33:02.266Z,57.05
2023-04-27T19:38:06.055Z,56.97
2023-04-27T19:43:10.488Z,57.34
2023-04-27T19:48:13.331Z,57.02
2023-04-27T19:53:16.418Z,56.67
2023-04-27T19:58:19.179Z,57.68
2023-04-27T20:03:22.268Z,57.74
2023-04-27T20:08:25.395Z,57.80
2023-04-27T20:13:32.736Z,57.66
2023-04-27T20:18:38.126Z,57.60
2023-04-27T20:23:41.819Z,58.36
2023-04-27T20:28:44.612Z,58.61
2023-04-27T20:33:47.410Z,58.51
2023-04-27T20:38:50.488Z,58.00
2023-04-27T20:43:53.746Z,58.76
2023-04-27T20:48:56.541Z,58.90
2023-04-27T20:53:59.946Z,59.23
2023-04-27T20:59:02.682Z,59.63
2023-04-27T21:04:05.505Z,59.40
2023-04-27T21:09:08.523Z,59.72
2023-04-27T21:14:11.501Z,59.97
2023-04-27T21:19:16.393Z,60.14
2023-04-27T21:24:20.312Z,60.09
2023-04-27T21:29:23.719Z,60.72
2023-04-27T21:34:26.728Z,60.88
2023-04-27T21:39:29.881Z,61.11
2023-04-27T21:44:32.624Z,60.79
2023-04-27T21:49:35.401Z,60.91
2023-04-27T21:54:38.161Z,61.35
2023-04-27T21:59:41.009Z,70.51
2023-04-27T22:04:44.751Z,70.36
2023-04-27T22:09:47.565Z,60.34
2023-04-27T22:14:50.622Z,54.31
2023-04-27T22:19:53.518Z,56.56
2023-04-27T22:24:56.261Z,57.56
2023-04-27T22:29:59.039Z,57.94
2023-04-27T22:35:02.450Z,59.03
2023-04-27T22:40:06.062Z,59.21
2023-04-27T22:45:09.492Z,59.45
2023-04-27T22:50:12.802Z,60.36
2023-04-27T22:55:16.125Z,60.35
2023-04-27T23:00:19.762Z,60.68
2023-04-27T23:05:22.930Z,69.72
2023-04-27T23:10:26.894Z,68.98
2023-04-27T23:15:29.647Z,59.00
2023-04-27T23:20:32.941Z,54.86
2023-04-27T23:25:35.768Z,57.29
2023-04-27T23:30:38.620Z,58.48
2023-04-27T23:35:41.897Z,59.48
2023-04-27T23:40:44.692Z,59.70
2023-04-27T23:45:53.737Z,61.01
2023-04-27T23:51:01.259Z,69.21
2023-04-27T23:56:04.165Z,65.85
